sensor_id;sensor_type;location;lat;lon;timestamp;P1;durP1;ratioP1;P2;durP2;ratioP2
79268;SDS011;68714;48.586;7.772;2023-05-17T00:25:06;3.20;;;1.10;;
79268;SDS011;68714;48.586;7.772;2023-05-17T00:27:32;1.30;;;0.60;;
79268;SDS011;68714;48.586;7.772;2023-05-17T00:29:57;3.85;;;1.08;;
79268;SDS011;68714;48.586;7.772;2023-05-17T00:32:23;2.47;;;1.08;;
79268;SDS011;68714;48.586;7.772;2023-05-17T00:34:48;2.10;;;0.75;;
79268;SDS011;68714;48.586;7.772;2023-05-17T00:37:14;4.60;;;1.42;;
79268;SDS011;68714;48.586;7.772;2023-05-17T00:39:39;3.97;;;1.23;;
79268;SDS011;68714;48.586;7.772;2023-05-17T00:42:04;3.65;;;1.13;;
79268;SDS011;68714;48.586;7.772;2023-05-17T00:44:30;2.22;;;1.00;;
79268;SDS011;68714;48.586;7.772;2023-05-17T00:46:56;3.92;;;1.27;;
79268;SDS011;68714;48.586;7.772;2023-05-17T00:49:23;1.10;;;0.70;;
79268;SDS011;68714;48.586;7.772;2023-05-17T03:11:50;2.80;;;1.00;;
79268;SDS011;68714;48.586;7.772;2023-05-17T03:14:16;4.68;;;1.25;;
79268;SDS011;68714;48.586;7.772;2023-05-17T03:16:41;7.72;;;1.27;;
79268;SDS011;68714;48.586;7.772;2023-05-17T03:19:07;2.63;;;1.20;;
79268;SDS011;68714;48.586;7.772;2023-05-17T03:21:32;4.65;;;1.23;;
79268;SDS011;68714;48.586;7.772;2023-05-17T03:23:57;3.47;;;1.10;;
79268;SDS011;68714;48.586;7.772;2023-05-17T03:26:23;3.60;;;1.27;;
79268;SDS011;68714;48.586;7.772;2023-05-17T03:28:48;3.47;;;1.27;;
79268;SDS011;68714;48.586;7.772;2023-05-17T03:31:14;4.50;;;1.25;;
79268;SDS011;68714;48.586;7.772;2023-05-17T03:33:41;10.90;;;1.45;;
79268;SDS011;68714;48.586;7.772;2023-05-17T03:36:06;3.22;;;1.30;;
79268;SDS011;68714;48.586;7.772;2023-05-17T03:38:32;3.03;;;1.15;;
79268;SDS011;68714;48.586;7.772;2023-05-17T03:40:57;3.97;;;1.23;;
79268;SDS011;68714;48.586;7.772;2023-05-17T03:43:23;2.72;;;1.00;;
79268;SDS011;68714;48.586;7.772;2023-05-17T03:45:48;4.13;;;1.70;;
79268;SDS011;68714;48.586;7.772;2023-05-17T03:48:14;3.60;;;1.10;;
79268;SDS011;68714;48.586;7.772;2023-05-17T03:50:39;5.15;;;1.45;;
79268;SDS011;68714;48.586;7.772;2023-05-17T03:53:05;4.60;;;0.93;;
79268;SDS011;68714;48.586;7.772;2023-05-17T03:55:31;2.88;;;1.10;;
79268;SDS011;68714;48.586;7.772;2023-05-17T03:57:58;4.22;;;1.30;;
79268;SDS011;68714;48.586;7.772;2023-05-17T04:00:23;2.10;;;1.10;;
79268;SDS011;68714;48.586;7.772;2023-05-17T04:02:49;5.18;;;1.50;;
79268;SDS011;68714;48.586;7.772;2023-05-17T04:05:16;3.88;;;1.65;;
79268;SDS011;68714;48.586;7.772;2023-05-17T04:07:42;2.85;;;1.23;;
79268;SDS011;68714;48.586;7.772;2023-05-17T04:10:08;2.35;;;1.00;;
79268;SDS011;68714;48.586;7.772;2023-05-17T04:12:33;4.72;;;1.70;;
79268;SDS011;68714;48.586;7.772;2023-05-17T04:14:59;6.80;;;1.58;;
79268;SDS011;68714;48.586;7.772;2023-05-17T04:17:25;3.40;;;1.33;;
79268;SDS011;68714;48.586;7.772;2023-05-17T04:19:51;4.80;;;1.90;;
79268;SDS011;68714;48.586;7.772;2023-05-17T04:22:17;4.90;;;1.80;;
79268;SDS011;68714;48.586;7.772;2023-05-17T04:24:42;6.45;;;1.83;;
79268;SDS011;68714;48.586;7.772;2023-05-17T04:27:07;4.18;;;1.35;;
79268;SDS011;68714;48.586;7.772;2023-05-17T04:29:33;3.55;;;1.60;;
79268;SDS011;68714;48.586;7.772;2023-05-17T04:31:59;3.28;;;1.27;;
79268;SDS011;68714;48.586;7.772;2023-05-17T04:34:24;3.78;;;1.20;;
79268;SDS011;68714;48.586;7.772;2023-05-17T04:36:50;6.00;;;1.10;;
79268;SDS011;68714;48.586;7.772;2023-05-17T04:39:15;6.22;;;1.80;;
79268;SDS011;68714;48.586;7.772;2023-05-17T04:41:43;4.35;;;1.58;;
79268;SDS011;68714;48.586;7.772;2023-05-17T04:44:09;5.13;;;1.70;;
79268;SDS011;68714;48.586;7.772;2023-05-17T04:46:35;8.35;;;1.75;;
79268;SDS011;68714;48.586;7.772;2023-05-17T04:49:01;3.88;;;1.60;;
79268;SDS011;68714;48.586;7.772;2023-05-17T04:51:27;3.20;;;1.45;;
79268;SDS011;68714;48.586;7.772;2023-05-17T04:53:53;3.55;;;1.45;;
79268;SDS011;68714;48.586;7.772;2023-05-17T04:56:19;4.43;;;1.58;;
79268;SDS011;68714;48.586;7.772;2023-05-17T04:58:44;3.70;;;1.48;;
79268;SDS011;68714;48.586;7.772;2023-05-17T05:01:10;3.10;;;1.42;;
79268;SDS011;68714;48.586;7.772;2023-05-17T05:03:36;4.88;;;1.50;;
79268;SDS011;68714;48.586;7.772;2023-05-17T05:06:01;5.63;;;1.83;;
79268;SDS011;68714;48.586;7.772;2023-05-17T05:08:29;6.28;;;1.80;;
79268;SDS011;68714;48.586;7.772;2023-05-17T05:10:54;6.25;;;2.03;;
79268;SDS011;68714;48.586;7.772;2023-05-17T05:13:21;5.63;;;1.77;;
79268;SDS011;68714;48.586;7.772;2023-05-17T05:15:46;6.90;;;2.03;;
79268;SDS011;68714;48.586;7.772;2023-05-17T05:18:12;4.65;;;1.70;;
79268;SDS011;68714;48.586;7.772;2023-05-17T05:20:37;2.30;;;1.20;;
79268;SDS011;68714;48.586;7.772;2023-05-17T05:23:02;3.00;;;1.27;;
79268;SDS011;68714;48.586;7.772;2023-05-17T05:25:29;5.30;;;1.83;;
79268;SDS011;68714;48.586;7.772;2023-05-17T05:27:55;4.00;;;1.80;;
79268;SDS011;68714;48.586;7.772;2023-05-17T05:30:21;6.05;;;1.75;;
79268;SDS011;68714;48.586;7.772;2023-05-17T05:32:48;4.72;;;1.70;;
79268;SDS011;68714;48.586;7.772;2023-05-17T05:35:14;7.50;;;1.92;;
79268;SDS011;68714;48.586;7.772;2023-05-17T05:37:40;2.97;;;1.60;;
79268;SDS011;68714;48.586;7.772;2023-05-17T05:40:06;4.70;;;1.55;;
79268;SDS011;68714;48.586;7.772;2023-05-17T05:42:32;6.53;;;2.45;;
79268;SDS011;68714;48.586;7.772;2023-05-17T05:44:58;6.47;;;2.20;;
79268;SDS011;68714;48.586;7.772;2023-05-17T05:47:23;5.00;;;2.10;;
79268;SDS011;68714;48.586;7.772;2023-05-17T05:49:49;4.63;;;2.15;;
79268;SDS011;68714;48.586;7.772;2023-05-17T05:52:14;5.85;;;1.90;;
79268;SDS011;68714;48.586;7.772;2023-05-17T05:54:40;3.92;;;1.65;;
79268;SDS011;68714;48.586;7.772;2023-05-17T05:57:05;3.80;;;1.70;;
79268;SDS011;68714;48.586;7.772;2023-05-17T05:59:31;4.68;;;1.70;;
79268;SDS011;68714;48.586;7.772;2023-05-17T06:01:56;4.75;;;1.80;;
79268;SDS011;68714;48.586;7.772;2023-05-17T10:42:21;3.20;;;2.30;;
79268;SDS011;68714;48.586;7.772;2023-05-17T10:44:46;5.00;;;2.13;;
79268;SDS011;68714;48.586;7.772;2023-05-17T10:47:12;4.75;;;2.78;;
79268;SDS011;68714;48.586;7.772;2023-05-17T10:49:41;4.78;;;2.25;;
79268;SDS011;68714;48.586;7.772;2023-05-17T10:52:12;5.93;;;3.15;;
79268;SDS011;68714;48.586;7.772;2023-05-17T10:54:41;5.32;;;3.60;;
79268;SDS011;68714;48.586;7.772;2023-05-17T10:57:08;6.70;;;3.50;;
79268;SDS011;68714;48.586;7.772;2023-05-17T10:59:59;8.95;;;3.53;;
79268;SDS011;68714;48.586;7.772;2023-05-17T11:02:28;9.55;;;3.47;;
79268;SDS011;68714;48.586;7.772;2023-05-17T11:04:55;4.88;;;3.08;;
79268;SDS011;68714;48.586;7.772;2023-05-17T11:07:22;5.25;;;3.17;;
79268;SDS011;68714;48.586;7.772;2023-05-17T11:10:00;5.45;;;2.80;;
79268;SDS011;68714;48.586;7.772;2023-05-17T11:20:08;9.13;;;3.20;;
79268;SDS011;68714;48.586;7.772;2023-05-17T11:23:00;9.80;;;4.07;;
79268;SDS011;68714;48.586;7.772;2023-05-17T11:25:38;5.35;;;2.92;;
79268;SDS011;68714;48.586;7.772;2023-05-17T11:28:05;5.75;;;2.85;;
79268;SDS011;68714;48.586;7.772;2023-05-17T11:30:32;5.82;;;3.60;;
79268;SDS011;68714;48.586;7.772;2023-05-17T11:35:34;6.28;;;3.53;;
79268;SDS011;68714;48.586;7.772;2023-05-17T11:38:20;5.63;;;3.30;;
79268;SDS011;68714;48.586;7.772;2023-05-17T11:40:49;6.47;;;3.60;;
79268;SDS011;68714;48.586;7.772;2023-05-17T11:43:43;6.75;;;3.25;;
79268;SDS011;68714;48.586;7.772;2023-05-17T11:46:10;7.90;;;3.95;;
79268;SDS011;68714;48.586;7.772;2023-05-17T11:48:44;8.55;;;3.72;;
79268;SDS011;68714;48.586;7.772;2023-05-17T11:51:12;6.00;;;3.03;;
79268;SDS011;68714;48.586;7.772;2023-05-17T11:53:39;6.43;;;3.15;;
79268;SDS011;68714;48.586;7.772;2023-05-17T11:56:06;7.35;;;3.45;;
79268;SDS011;68714;48.586;7.772;2023-05-17T11:58:32;7.55;;;3.40;;
79268;SDS011;68714;48.586;7.772;2023-05-17T12:00:58;5.15;;;2.55;;
79268;SDS011;68714;48.586;7.772;2023-05-17T12:03:27;7.63;;;3.63;;
79268;SDS011;68714;48.586;7.772;2023-05-17T12:08:27;4.97;;;2.80;;
79268;SDS011;68714;48.586;7.772;2023-05-17T12:10:52;5.15;;;2.85;;
79268;SDS011;68714;48.586;7.772;2023-05-17T12:13:20;6.32;;;2.75;;
79268;SDS011;68714;48.586;7.772;2023-05-17T12:15:47;3.83;;;2.30;;
79268;SDS011;68714;48.586;7.772;2023-05-17T12:18:17;7.45;;;3.03;;
79268;SDS011;68714;48.586;7.772;2023-05-17T12:20:54;7.15;;;2.78;;
79268;SDS011;68714;48.586;7.772;2023-05-17T12:23:30;4.80;;;2.55;;
79268;SDS011;68714;48.586;7.772;2023-05-17T12:26:06;7.63;;;3.28;;
79268;SDS011;68714;48.586;7.772;2023-05-17T12:28:44;6.07;;;2.65;;
79268;SDS011;68714;48.586;7.772;2023-05-17T12:31:17;4.45;;;3.00;;
79268;SDS011;68714;48.586;7.772;2023-05-17T12:33:46;5.85;;;3.20;;
79268;SDS011;68714;48.586;7.772;2023-05-17T12:36:14;5.95;;;2.83;;
79268;SDS011;68714;48.586;7.772;2023-05-17T12:38:41;8.40;;;2.95;;
79268;SDS011;68714;48.586;7.772;2023-05-17T12:41:12;7.47;;;3.00;;
79268;SDS011;68714;48.586;7.772;2023-05-17T12:43:42;5.43;;;3.17;;
79268;SDS011;68714;48.586;7.772;2023-05-17T12:46:10;5.50;;;2.53;;
79268;SDS011;68714;48.586;7.772;2023-05-17T12:48:38;6.07;;;2.70;;
79268;SDS011;68714;48.586;7.772;2023-05-17T12:53:43;5.28;;;2.55;;
79268;SDS011;68714;48.586;7.772;2023-05-17T12:56:16;8.70;;;2.50;;
79268;SDS011;68714;48.586;7.772;2023-05-17T12:58:46;6.82;;;3.45;;
79268;SDS011;68714;48.586;7.772;2023-05-17T13:01:32;6.10;;;2.67;;
79268;SDS011;68714;48.586;7.772;2023-05-17T13:04:03;6.72;;;2.80;;
79268;SDS011;68714;48.586;7.772;2023-05-17T13:06:28;6.32;;;3.10;;
79268;SDS011;68714;48.586;7.772;2023-05-17T13:09:07;7.88;;;2.72;;
79268;SDS011;68714;48.586;7.772;2023-05-17T13:11:33;5.93;;;2.85;;
79268;SDS011;68714;48.586;7.772;2023-05-17T13:14:04;3.90;;;2.33;;
79268;SDS011;68714;48.586;7.772;2023-05-17T13:16:30;8.40;;;2.53;;
79268;SDS011;68714;48.586;7.772;2023-05-17T13:18:56;8.82;;;4.05;;
79268;SDS011;68714;48.586;7.772;2023-05-17T13:21:21;4.60;;;2.60;;
79268;SDS011;68714;48.586;7.772;2023-05-17T13:23:49;8.50;;;2.95;;
79268;SDS011;68714;48.586;7.772;2023-05-17T13:26:15;8.27;;;2.83;;
79268;SDS011;68714;48.586;7.772;2023-05-17T13:28:42;5.60;;;2.60;;
79268;SDS011;68714;48.586;7.772;2023-05-17T13:31:07;6.07;;;2.50;;
79268;SDS011;68714;48.586;7.772;2023-05-17T13:33:34;3.75;;;2.60;;
79268;SDS011;68714;48.586;7.772;2023-05-17T13:35:59;4.35;;;2.88;;
79268;SDS011;68714;48.586;7.772;2023-05-17T13:38:25;3.83;;;2.17;;
79268;SDS011;68714;48.586;7.772;2023-05-17T13:40:50;4.85;;;2.22;;
79268;SDS011;68714;48.586;7.772;2023-05-17T13:43:16;7.75;;;3.58;;
79268;SDS011;68714;48.586;7.772;2023-05-17T13:45:42;5.68;;;2.88;;
79268;SDS011;68714;48.586;7.772;2023-05-17T13:48:07;4.30;;;2.10;;
79268;SDS011;68714;48.586;7.772;2023-05-17T13:50:33;4.57;;;2.70;;
79268;SDS011;68714;48.586;7.772;2023-05-17T13:52:59;5.57;;;2.83;;
79268;SDS011;68714;48.586;7.772;2023-05-17T13:55:26;4.30;;;2.92;;
79268;SDS011;68714;48.586;7.772;2023-05-17T13:57:52;3.33;;;2.40;;
79268;SDS011;68714;48.586;7.772;2023-05-17T14:00:18;5.60;;;1.95;;
79268;SDS011;68714;48.586;7.772;2023-05-17T14:02:43;4.03;;;2.17;;
79268;SDS011;68714;48.586;7.772;2023-05-17T14:05:09;7.82;;;2.90;;
79268;SDS011;68714;48.586;7.772;2023-05-17T14:07:35;5.20;;;2.50;;
79268;SDS011;68714;48.586;7.772;2023-05-17T14:10:06;5.88;;;2.30;;
79268;SDS011;68714;48.586;7.772;2023-05-17T14:12:33;6.20;;;2.80;;
79268;SDS011;68714;48.586;7.772;2023-05-17T14:15:00;4.75;;;2.47;;
79268;SDS011;68714;48.586;7.772;2023-05-17T14:17:26;4.35;;;2.58;;
79268;SDS011;68714;48.586;7.772;2023-05-17T14:19:52;3.63;;;2.33;;
79268;SDS011;68714;48.586;7.772;2023-05-17T14:22:20;6.00;;;2.60;;
79268;SDS011;68714;48.586;7.772;2023-05-17T14:24:46;5.60;;;2.90;;
79268;SDS011;68714;48.586;7.772;2023-05-17T14:27:11;6.07;;;3.28;;
79268;SDS011;68714;48.586;7.772;2023-05-17T14:29:37;3.78;;;2.50;;
79268;SDS011;68714;48.586;7.772;2023-05-17T14:32:02;5.47;;;2.67;;
79268;SDS011;68714;48.586;7.772;2023-05-17T14:34:28;5.18;;;2.50;;
79268;SDS011;68714;48.586;7.772;2023-05-17T14:36:55;3.15;;;2.25;;
79268;SDS011;68714;48.586;7.772;2023-05-17T14:39:20;5.07;;;3.20;;
79268;SDS011;68714;48.586;7.772;2023-05-17T14:41:46;5.18;;;2.75;;
79268;SDS011;68714;48.586;7.772;2023-05-17T14:44:11;7.18;;;2.55;;
79268;SDS011;68714;48.586;7.772;2023-05-17T14:46:38;3.58;;;2.40;;
79268;SDS011;68714;48.586;7.772;2023-05-17T14:49:03;5.30;;;3.15;;
79268;SDS011;68714;48.586;7.772;2023-05-17T14:51:30;7.28;;;3.72;;
79268;SDS011;68714;48.586;7.772;2023-05-17T14:53:55;4.10;;;2.63;;
79268;SDS011;68714;48.586;7.772;2023-05-17T14:56:22;5.65;;;2.78;;
79268;SDS011;68714;48.586;7.772;2023-05-17T14:58:49;5.13;;;2.65;;
79268;SDS011;68714;48.586;7.772;2023-05-17T15:01:15;5.50;;;3.03;;
79268;SDS011;68714;48.586;7.772;2023-05-17T15:03:41;4.88;;;2.38;;
79268;SDS011;68714;48.586;7.772;2023-05-17T15:06:06;4.47;;;2.53;;
79268;SDS011;68714;48.586;7.772;2023-05-17T15:08:33;5.93;;;2.80;;
79268;SDS011;68714;48.586;7.772;2023-05-17T15:11:00;5.18;;;3.10;;
79268;SDS011;68714;48.586;7.772;2023-05-17T15:13:25;5.28;;;2.65;;
79268;SDS011;68714;48.586;7.772;2023-05-17T15:15:51;4.97;;;2.58;;
79268;SDS011;68714;48.586;7.772;2023-05-17T15:18:17;4.88;;;2.42;;
79268;SDS011;68714;48.586;7.772;2023-05-17T15:20:43;4.43;;;2.33;;
79268;SDS011;68714;48.586;7.772;2023-05-17T15:23:08;7.70;;;2.50;;
79268;SDS011;68714;48.586;7.772;2023-05-17T15:25:33;5.30;;;2.60;;
79268;SDS011;68714;48.586;7.772;2023-05-17T15:27:59;4.47;;;2.53;;
79268;SDS011;68714;48.586;7.772;2023-05-17T15:30:25;3.55;;;2.13;;
79268;SDS011;68714;48.586;7.772;2023-05-17T15:32:55;5.07;;;2.58;;
79268;SDS011;68714;48.586;7.772;2023-05-17T15:35:22;6.63;;;2.83;;
79268;SDS011;68714;48.586;7.772;2023-05-17T15:37:50;5.80;;;3.03;;
79268;SDS011;68714;48.586;7.772;2023-05-17T15:40:16;5.95;;;2.85;;
79268;SDS011;68714;48.586;7.772;2023-05-17T15:42:42;4.53;;;2.28;;
79268;SDS011;68714;48.586;7.772;2023-05-17T15:45:08;5.65;;;2.45;;
79268;SDS011;68714;48.586;7.772;2023-05-17T15:47:34;3.60;;;2.10;;
79268;SDS011;68714;48.586;7.772;2023-05-17T15:50:00;6.40;;;2.88;;
79268;SDS011;68714;48.586;7.772;2023-05-17T15:52:26;6.40;;;2.40;;
79268;SDS011;68714;48.586;7.772;2023-05-17T15:54:52;5.60;;;2.60;;
79268;SDS011;68714;48.586;7.772;2023-05-17T15:57:18;5.68;;;2.28;;
79268;SDS011;68714;48.586;7.772;2023-05-17T15:59:43;7.50;;;3.03;;
79268;SDS011;68714;48.586;7.772;2023-05-17T16:02:09;7.05;;;2.50;;
79268;SDS011;68714;48.586;7.772;2023-05-17T16:04:35;7.45;;;2.30;;
79268;SDS011;68714;48.586;7.772;2023-05-17T16:07:00;6.78;;;2.83;;
79268;SDS011;68714;48.586;7.772;2023-05-17T16:09:25;8.38;;;2.67;;
79268;SDS011;68714;48.586;7.772;2023-05-17T16:11:51;4.88;;;2.33;;
79268;SDS011;68714;48.586;7.772;2023-05-17T16:14:16;5.00;;;2.22;;
79268;SDS011;68714;48.586;7.772;2023-05-17T16:16:43;4.03;;;1.98;;
79268;SDS011;68714;48.586;7.772;2023-05-17T16:19:10;4.07;;;2.63;;
79268;SDS011;68714;48.586;7.772;2023-05-17T16:21:36;7.13;;;2.58;;
79268;SDS011;68714;48.586;7.772;2023-05-17T16:24:02;3.40;;;2.15;;
79268;SDS011;68714;48.586;7.772;2023-05-17T16:26:30;4.40;;;2.50;;
79268;SDS011;68714;48.586;7.772;2023-05-17T16:28:57;4.65;;;2.30;;
79268;SDS011;68714;48.586;7.772;2023-05-17T16:31:22;8.38;;;2.70;;
79268;SDS011;68714;48.586;7.772;2023-05-17T16:33:49;3.53;;;1.92;;
79268;SDS011;68714;48.586;7.772;2023-05-17T16:36:15;3.88;;;2.17;;
79268;SDS011;68714;48.586;7.772;2023-05-17T16:38:43;7.90;;;2.60;;
79268;SDS011;68714;48.586;7.772;2023-05-17T16:41:08;7.13;;;2.10;;
79268;SDS011;68714;48.586;7.772;2023-05-17T16:43:35;4.63;;;2.30;;
79268;SDS011;68714;48.586;7.772;2023-05-17T16:46:00;5.35;;;2.30;;
79268;SDS011;68714;48.586;7.772;2023-05-17T16:48:26;5.13;;;2.30;;
79268;SDS011;68714;48.586;7.772;2023-05-17T16:50:51;5.63;;;3.00;;
79268;SDS011;68714;48.586;7.772;2023-05-17T16:53:17;6.93;;;3.80;;
79268;SDS011;68714;48.586;7.772;2023-05-17T16:55:44;7.75;;;3.20;;
79268;SDS011;68714;48.586;7.772;2023-05-17T16:58:10;6.45;;;2.60;;
79268;SDS011;68714;48.586;7.772;2023-05-17T17:00:38;6.65;;;2.33;;
79268;SDS011;68714;48.586;7.772;2023-05-17T17:03:06;6.53;;;2.47;;
79268;SDS011;68714;48.586;7.772;2023-05-17T17:05:31;4.50;;;2.30;;
79268;SDS011;68714;48.586;7.772;2023-05-17T17:07:56;4.95;;;2.60;;
79268;SDS011;68714;48.586;7.772;2023-05-17T17:10:22;4.63;;;2.33;;
79268;SDS011;68714;48.586;7.772;2023-05-17T17:12:47;6.97;;;2.90;;
79268;SDS011;68714;48.586;7.772;2023-05-17T17:15:15;5.63;;;2.28;;
79268;SDS011;68714;48.586;7.772;2023-05-17T17:17:40;5.25;;;2.20;;
79268;SDS011;68714;48.586;7.772;2023-05-17T17:20:09;5.13;;;2.55;;
79268;SDS011;68714;48.586;7.772;2023-05-17T17:22:36;4.65;;;2.25;;
79268;SDS011;68714;48.586;7.772;2023-05-17T17:25:01;4.25;;;1.92;;
79268;SDS011;68714;48.586;7.772;2023-05-17T17:27:27;3.90;;;2.53;;
79268;SDS011;68714;48.586;7.772;2023-05-17T17:29:53;5.70;;;2.67;;
79268;SDS011;68714;48.586;7.772;2023-05-17T17:32:19;4.60;;;2.17;;
79268;SDS011;68714;48.586;7.772;2023-05-17T17:34:46;4.30;;;2.65;;
79268;SDS011;68714;48.586;7.772;2023-05-17T17:37:12;6.53;;;2.55;;
79268;SDS011;68714;48.586;7.772;2023-05-17T17:39:38;4.07;;;2.25;;
79268;SDS011;68714;48.586;7.772;2023-05-17T17:42:07;4.03;;;2.15;;
79268;SDS011;68714;48.586;7.772;2023-05-17T17:44:33;4.38;;;2.10;;
79268;SDS011;68714;48.586;7.772;2023-05-17T17:46:59;6.30;;;2.95;;
79268;SDS011;68714;48.586;7.772;2023-05-17T17:49:24;6.55;;;2.28;;
79268;SDS011;68714;48.586;7.772;2023-05-17T17:51:50;5.15;;;2.95;;
79268;SDS011;68714;48.586;7.772;2023-05-17T17:54:15;5.65;;;2.50;;
79268;SDS011;68714;48.586;7.772;2023-05-17T17:56:41;5.28;;;2.00;;
79268;SDS011;68714;48.586;7.772;2023-05-17T17:59:08;4.70;;;2.50;;
79268;SDS011;68714;48.586;7.772;2023-05-17T18:01:39;5.25;;;2.42;;
79268;SDS011;68714;48.586;7.772;2023-05-17T18:07:34;4.00;;;1.98;;
79268;SDS011;68714;48.586;7.772;2023-05-17T18:10:01;6.03;;;2.20;;
79268;SDS011;68714;48.586;7.772;2023-05-17T18:12:27;3.83;;;1.95;;
79268;SDS011;68714;48.586;7.772;2023-05-17T18:14:53;5.05;;;2.22;;
79268;SDS011;68714;48.586;7.772;2023-05-17T18:17:19;5.35;;;2.22;;
79268;SDS011;68714;48.586;7.772;2023-05-17T18:19:44;5.15;;;2.10;;
79268;SDS011;68714;48.586;7.772;2023-05-17T18:22:10;4.25;;;2.20;;
79268;SDS011;68714;48.586;7.772;2023-05-17T18:24:40;3.83;;;1.92;;
79268;SDS011;68714;48.586;7.772;2023-05-17T18:27:07;5.22;;;1.98;;
79268;SDS011;68714;48.586;7.772;2023-05-17T18:29:40;4.20;;;2.13;;
79268;SDS011;68714;48.586;7.772;2023-05-17T18:32:06;3.55;;;1.77;;
79268;SDS011;68714;48.586;7.772;2023-05-17T18:34:33;6.22;;;2.28;;
79268;SDS011;68714;48.586;7.772;2023-05-17T18:36:59;2.95;;;1.75;;
79268;SDS011;68714;48.586;7.772;2023-05-17T18:39:25;4.20;;;2.25;;
79268;SDS011;68714;48.586;7.772;2023-05-17T18:41:50;3.60;;;1.83;;
79268;SDS011;68714;48.586;7.772;2023-05-17T18:44:16;4.22;;;2.40;;
79268;SDS011;68714;48.586;7.772;2023-05-17T18:46:42;5.57;;;2.30;;
79268;SDS011;68714;48.586;7.772;2023-05-17T18:49:11;5.53;;;2.65;;
79268;SDS011;68714;48.586;7.772;2023-05-17T18:51:37;4.32;;;2.20;;
79268;SDS011;68714;48.586;7.772;2023-05-17T18:54:03;5.32;;;2.67;;
79268;SDS011;68714;48.586;7.772;2023-05-17T18:56:28;6.60;;;2.40;;
79268;SDS011;68714;48.586;7.772;2023-05-17T18:58:56;5.65;;;2.15;;
79268;SDS011;68714;48.586;7.772;2023-05-17T19:01:22;3.97;;;2.17;;
79268;SDS011;68714;48.586;7.772;2023-05-17T19:03:48;4.55;;;2.35;;
79268;SDS011;68714;48.586;7.772;2023-05-17T19:06:21;5.35;;;2.60;;
79268;SDS011;68714;48.586;7.772;2023-05-17T19:08:48;3.28;;;2.10;;
79268;SDS011;68714;48.586;7.772;2023-05-17T19:11:14;4.22;;;2.42;;
79268;SDS011;68714;48.586;7.772;2023-05-17T19:13:40;4.30;;;2.40;;
79268;SDS011;68714;48.586;7.772;2023-05-17T19:16:05;3.65;;;2.00;;
79268;SDS011;68714;48.586;7.772;2023-05-17T19:18:31;5.10;;;2.22;;
79268;SDS011;68714;48.586;7.772;2023-05-17T19:20:57;3.78;;;2.33;;
79268;SDS011;68714;48.586;7.772;2023-05-17T19:23:23;3.80;;;1.90;;
79268;SDS011;68714;48.586;7.772;2023-05-17T19:25:48;4.22;;;2.25;;
79268;SDS011;68714;48.586;7.772;2023-05-17T19:28:15;3.13;;;1.98;;
79268;SDS011;68714;48.586;7.772;2023-05-17T19:30:40;3.47;;;2.03;;
79268;SDS011;68714;48.586;7.772;2023-05-17T19:33:06;3.53;;;2.05;;
79268;SDS011;68714;48.586;7.772;2023-05-17T19:35:31;3.75;;;2.10;;
79268;SDS011;68714;48.586;7.772;2023-05-17T19:37:57;4.63;;;2.03;;
79268;SDS011;68714;48.586;7.772;2023-05-17T19:40:23;5.22;;;2.35;;
79268;SDS011;68714;48.586;7.772;2023-05-17T19:42:49;4.65;;;1.98;;
79268;SDS011;68714;48.586;7.772;2023-05-17T19:45:14;4.20;;;2.08;;
79268;SDS011;68714;48.586;7.772;2023-05-17T19:47:40;3.95;;;1.92;;
79268;SDS011;68714;48.586;7.772;2023-05-17T19:50:06;3.85;;;1.95;;
79268;SDS011;68714;48.586;7.772;2023-05-17T19:52:33;4.00;;;2.17;;
79268;SDS011;68714;48.586;7.772;2023-05-17T19:54:59;3.30;;;1.83;;
79268;SDS011;68714;48.586;7.772;2023-05-17T19:57:25;4.32;;;2.20;;
79268;SDS011;68714;48.586;7.772;2023-05-17T19:59:51;3.88;;;1.92;;
79268;SDS011;68714;48.586;7.772;2023-05-17T20:02:16;3.22;;;1.95;;
79268;SDS011;68714;48.586;7.772;2023-05-17T20:04:42;3.60;;;1.98;;
79268;SDS011;68714;48.586;7.772;2023-05-17T20:07:08;4.50;;;2.30;;
79268;SDS011;68714;48.586;7.772;2023-05-17T20:09:33;4.47;;;2.03;;
79268;SDS011;68714;48.586;7.772;2023-05-17T20:12:00;4.75;;;2.33;;
79268;SDS011;68714;48.586;7.772;2023-05-17T20:14:26;7.55;;;2.20;;
79268;SDS011;68714;48.586;7.772;2023-05-17T20:16:51;4.97;;;2.40;;
79268;SDS011;68714;48.586;7.772;2023-05-17T20:19:17;4.32;;;2.28;;
79268;SDS011;68714;48.586;7.772;2023-05-17T20:21:43;5.35;;;2.85;;
79268;SDS011;68714;48.586;7.772;2023-05-17T20:24:08;5.03;;;2.30;;
79268;SDS011;68714;48.586;7.772;2023-05-17T20:26:34;3.72;;;2.20;;
79268;SDS011;68714;48.586;7.772;2023-05-17T20:29:04;5.38;;;2.10;;
79268;SDS011;68714;48.586;7.772;2023-05-17T20:31:34;4.15;;;2.00;;
79268;SDS011;68714;48.586;7.772;2023-05-17T20:34:01;3.40;;;2.20;;
79268;SDS011;68714;48.586;7.772;2023-05-17T20:36:27;3.85;;;2.22;;
79268;SDS011;68714;48.586;7.772;2023-05-17T20:38:53;4.72;;;2.63;;
79268;SDS011;68714;48.586;7.772;2023-05-17T20:41:20;3.88;;;1.90;;
79268;SDS011;68714;48.586;7.772;2023-05-17T20:43:45;4.57;;;2.30;;
79268;SDS011;68714;48.586;7.772;2023-05-17T20:46:13;2.80;;;1.90;;
79268;SDS011;68714;48.586;7.772;2023-05-17T20:48:39;3.67;;;2.08;;
79268;SDS011;68714;48.586;7.772;2023-05-17T20:51:07;4.78;;;2.42;;
79268;SDS011;68714;48.586;7.772;2023-05-17T20:53:34;3.70;;;2.25;;
79268;SDS011;68714;48.586;7.772;2023-05-17T20:56:00;3.80;;;2.33;;
79268;SDS011;68714;48.586;7.772;2023-05-17T20:58:25;5.28;;;2.25;;
79268;SDS011;68714;48.586;7.772;2023-05-17T21:00:53;2.55;;;1.73;;
79268;SDS011;68714;48.586;7.772;2023-05-17T21:03:19;4.15;;;2.22;;
79268;SDS011;68714;48.586;7.772;2023-05-17T21:05:44;5.75;;;2.80;;
79268;SDS011;68714;48.586;7.772;2023-05-17T21:08:10;3.72;;;1.95;;
79268;SDS011;68714;48.586;7.772;2023-05-17T21:10:37;3.50;;;2.20;;
79268;SDS011;68714;48.586;7.772;2023-05-17T21:13:08;4.82;;;2.38;;
79268;SDS011;68714;48.586;7.772;2023-05-17T21:15:34;3.78;;;2.05;;
79268;SDS011;68714;48.586;7.772;2023-05-17T21:18:00;4.05;;;2.08;;
79268;SDS011;68714;48.586;7.772;2023-05-17T21:20:26;4.30;;;2.45;;
79268;SDS011;68714;48.586;7.772;2023-05-17T21:22:51;3.80;;;2.17;;
79268;SDS011;68714;48.586;7.772;2023-05-17T21:25:17;5.00;;;2.45;;
79268;SDS011;68714;48.586;7.772;2023-05-17T21:27:42;3.47;;;1.80;;
79268;SDS011;68714;48.586;7.772;2023-05-17T21:30:08;3.25;;;2.22;;
79268;SDS011;68714;48.586;7.772;2023-05-17T21:32:33;5.15;;;2.13;;
79268;SDS011;68714;48.586;7.772;2023-05-17T21:34:59;6.13;;;3.17;;
79268;SDS011;68714;48.586;7.772;2023-05-17T21:37:25;6.38;;;3.03;;
79268;SDS011;68714;48.586;7.772;2023-05-17T21:39:50;4.65;;;2.45;;
79268;SDS011;68714;48.586;7.772;2023-05-17T21:42:15;4.63;;;3.08;;
79268;SDS011;68714;48.586;7.772;2023-05-17T21:44:41;6.13;;;3.03;;
79268;SDS011;68714;48.586;7.772;2023-05-17T21:47:06;3.60;;;2.67;;
79268;SDS011;68714;48.586;7.772;2023-05-17T21:49:32;5.50;;;3.03;;
79268;SDS011;68714;48.586;7.772;2023-05-17T21:51:57;4.10;;;2.63;;
79268;SDS011;68714;48.586;7.772;2023-05-17T21:54:23;3.67;;;2.17;;
79268;SDS011;68714;48.586;7.772;2023-05-17T21:56:49;3.75;;;2.15;;
79268;SDS011;68714;48.586;7.772;2023-05-17T21:59:15;4.93;;;2.88;;
79268;SDS011;68714;48.586;7.772;2023-05-17T22:01:41;4.28;;;2.85;;
79268;SDS011;68714;48.586;7.772;2023-05-17T22:04:06;5.60;;;3.50;;
79268;SDS011;68714;48.586;7.772;2023-05-17T22:06:33;5.40;;;2.60;;
79268;SDS011;68714;48.586;7.772;2023-05-17T22:08:59;6.18;;;2.58;;
79268;SDS011;68714;48.586;7.772;2023-05-17T22:11:25;4.85;;;2.67;;
79268;SDS011;68714;48.586;7.772;2023-05-17T22:13:52;5.78;;;3.08;;
79268;SDS011;68714;48.586;7.772;2023-05-17T22:16:18;4.22;;;2.72;;
79268;SDS011;68714;48.586;7.772;2023-05-17T22:18:47;5.68;;;3.08;;
79268;SDS011;68714;48.586;7.772;2023-05-17T22:21:16;6.15;;;3.28;;
79268;SDS011;68714;48.586;7.772;2023-05-17T22:23:46;4.13;;;2.55;;
79268;SDS011;68714;48.586;7.772;2023-05-17T22:26:12;5.15;;;3.17;;